Terminal Aerodrome Forecast
Issued by NWS Brownsville, TX

Current Version | Previous Version | Text Only | Print | Product List | Glossary Off
Versions: 1 2 3 4 5 6 7 8 9 10 11 12 13 14 15 16 17 18

000
FTUS44 KBRO 291120
TAFBRO
TAF
KBRO 291120Z 2912/3012 13005KT 6SM HZ FEW014 BKN020
      TEMPO 2912/2914 6SM HZ SCT012
     FM291500 16015G22KT P6SM SCT025
     FM300100 14008KT P6SM FEW200
     FM300800 14006KT 6SM HZ FEW015=

USA.gov is the U.S. government's official web portal to all federal, state and local government web resources and services.